createdAt,value
2018-01-31T01:53:48.332Z,35.07
2018-01-31T01:56:15.927Z,26.00
2018-01-31T01:58:43.643Z,30.87
2018-01-31T02:01:12.968Z,40.33
2018-01-31T02:03:40.581Z,28.73
2018-01-31T02:06:08.124Z,30.67
2018-01-31T02:08:35.692Z,22.00
2018-01-31T02:11:04.018Z,30.23
2018-01-31T02:13:31.633Z,29.70
2018-01-31T02:15:59.182Z,28.30
2018-01-31T02:18:26.745Z,31.40
2018-01-31T02:20:54.315Z,32.97
2018-01-31T02:23:21.862Z,27.63
2018-01-31T02:25:49.433Z,36.47
2018-01-31T02:28:16.976Z,24.80
2018-01-31T02:30:44.542Z,33.40
2018-01-31T02:33:12.232Z,37.00
2018-01-31T02:35:40.604Z,31.47
2018-01-31T02:38:08.154Z,31.53
2018-01-31T02:40:36.488Z,36.47
2018-01-31T02:43:04.045Z,34.07
2018-01-31T02:45:32.442Z,28.90
2018-01-31T02:48:00.751Z,44.67
2018-01-31T02:50:29.071Z,33.50
2018-01-31T02:52:56.627Z,34.87
2018-01-31T02:55:24.954Z,39.33
2018-01-31T02:57:52.499Z,38.63
2018-01-31T03:00:20.060Z,36.40
2018-01-31T03:02:47.611Z,35.60
2018-01-31T03:05:15.148Z,32.03
2018-01-31T03:07:42.695Z,39.10
2018-01-31T03:10:10.269Z,37.23
2018-01-31T03:12:37.808Z,31.83
2018-01-31T03:15:06.115Z,36.20
2018-01-31T03:17:34.447Z,34.00
2018-01-31T03:20:01.992Z,35.53
2018-01-31T03:22:29.551Z,32.03
2018-01-31T03:24:57.099Z,42.90
2018-01-31T03:27:24.650Z,34.67
2018-01-31T03:29:52.952Z,48.53
2018-01-31T03:32:21.295Z,38.27
2018-01-31T03:34:48.832Z,33.17
2018-01-31T03:37:16.363Z,49.67
2018-01-31T03:39:43.924Z,36.20
2018-01-31T03:42:11.465Z,38.63
2018-01-31T03:44:39.019Z,32.30
2018-01-31T03:47:06.563Z,37.53
2018-01-31T03:49:34.880Z,26.57
2018-01-31T03:52:02.463Z,25.83
2018-01-31T03:54:30.015Z,36.43
2018-01-31T03:56:57.569Z,35.33
2018-01-31T03:59:25.131Z,32.03
2018-01-31T04:01:52.663Z,29.63
2018-01-31T04:04:20.214Z,29.17
2018-01-31T04:06:47.751Z,23.40
2018-01-31T04:09:16.075Z,35.27
2018-01-31T04:11:43.608Z,31.27
2018-01-31T04:14:11.194Z,25.37
2018-01-31T04:16:38.735Z,30.47
2018-01-31T04:19:06.270Z,26.33
2018-01-31T04:21:33.822Z,25.93
2018-01-31T04:24:01.350Z,23.93
2018-01-31T04:26:29.669Z,34.83
2018-01-31T04:28:57.991Z,24.57
2018-01-31T04:31:25.547Z,27.23
2018-01-31T04:33:53.842Z,36.97
2018-01-31T04:36:22.156Z,24.23
2018-01-31T04:38:49.691Z,26.60
2018-01-31T04:41:17.239Z,26.33
2018-01-31T04:43:44.774Z,27.90
2018-01-31T04:46:12.370Z,26.13
2018-01-31T04:48:39.898Z,26.60
2018-01-31T04:51:07.592Z,26.07
2018-01-31T04:53:35.147Z,21.07
2018-01-31T04:56:02.687Z,25.30
2018-01-31T04:58:30.235Z,32.80
2018-01-31T05:00:57.771Z,21.97
2018-01-31T05:03:25.320Z,25.43
2018-01-31T05:05:52.858Z,33.40
2018-01-31T05:08:21.179Z,33.07
2018-01-31T05:10:48.720Z,17.70
2018-01-31T05:13:16.274Z,32.53
2018-01-31T05:15:43.812Z,17.63
2018-01-31T05:18:12.132Z,30.40
2018-01-31T05:20:39.687Z,16.97
2018-01-31T05:23:08.027Z,18.63
2018-01-31T05:25:35.559Z,26.07
2018-01-31T05:28:03.091Z,24.07
2018-01-31T05:30:30.648Z,23.27
2018-01-31T05:32:58.942Z,25.83
2018-01-31T05:35:27.259Z,24.57
2018-01-31T05:37:54.802Z,21.07
2018-01-31T05:40:23.186Z,18.23
2018-01-31T05:42:50.728Z,25.47
2018-01-31T05:45:18.274Z,25.33
2018-01-31T05:47:45.811Z,22.23
2018-01-31T05:50:13.367Z,24.23
2018-01-31T05:52:41.663Z,21.03
2018-01-31T05:55:09.986Z,26.20
2018-01-31T05:57:37.528Z,17.90
2018-01-31T06:00:05.082Z,33.47
2018-01-31T06:02:32.615Z,16.70
2018-01-31T06:05:00.940Z,21.83
2018-01-31T06:07:28.472Z,21.87
2018-01-31T06:09:56.821Z,23.87
2018-01-31T06:12:24.367Z,20.83
2018-01-31T06:14:52.695Z,19.10
2018-01-31T06:17:20.263Z,17.40
2018-01-31T06:19:47.795Z,20.07
2018-01-31T06:22:15.384Z,21.10
2018-01-31T06:24:42.930Z,23.20
2018-01-31T06:27:11.259Z,19.37
2018-01-31T06:29:38.844Z,19.57
2018-01-31T06:32:06.436Z,19.47
2018-01-31T06:34:33.974Z,24.43
2018-01-31T06:37:02.295Z,21.73
2018-01-31T06:39:29.840Z,16.97
2018-01-31T06:41:57.459Z,26.97
2018-01-31T06:44:25.755Z,17.90
2018-01-31T06:46:54.059Z,19.70
2018-01-31T06:49:22.417Z,24.97
2018-01-31T06:51:49.940Z,25.17
2018-01-31T06:54:18.264Z,18.33
2018-01-31T06:56:45.799Z,21.20
2018-01-31T06:59:13.351Z,17.87
2018-01-31T07:01:40.887Z,28.07
2018-01-31T07:04:09.202Z,23.23
2018-01-31T07:06:36.770Z,19.80
2018-01-31T07:09:04.339Z,19.63
2018-01-31T07:11:31.884Z,25.73
2018-01-31T07:13:59.432Z,18.60
2018-01-31T07:16:27.741Z,27.53
2018-01-31T07:18:55.295Z,21.07
2018-01-31T07:21:22.830Z,26.63
2018-01-31T07:23:50.364Z,19.60
2018-01-31T07:26:17.920Z,19.53
2018-01-31T07:28:45.455Z,22.57
2018-01-31T07:31:13.776Z,19.53
2018-01-31T07:33:41.315Z,15.13
2018-01-31T07:36:08.866Z,15.97
2018-01-31T07:38:36.399Z,18.57
2018-01-31T07:41:04.715Z,18.10
2018-01-31T07:43:32.255Z,26.53
2018-01-31T07:45:59.806Z,15.40
2018-01-31T07:48:27.339Z,14.87
2018-01-31T07:50:54.887Z,22.53
2018-01-31T07:53:22.421Z,19.87
2018-01-31T07:55:50.740Z,19.30
2018-01-31T07:58:18.278Z,16.83
2018-01-31T08:00:45.834Z,26.77
2018-01-31T08:03:13.366Z,22.77
2018-01-31T08:05:41.704Z,19.77
2018-01-31T08:08:09.241Z,20.63
2018-01-31T08:10:37.556Z,17.97
2018-01-31T08:13:05.881Z,17.90
2018-01-31T08:15:33.417Z,24.30
2018-01-31T08:18:00.971Z,18.90
2018-01-31T08:20:28.508Z,20.03
2018-01-31T08:22:56.833Z,20.93
2018-01-31T08:25:24.371Z,14.93
2018-01-31T08:27:51.922Z,22.13
2018-01-31T08:30:19.463Z,22.00
2018-01-31T08:32:47.787Z,19.00
2018-01-31T08:35:15.318Z,17.70
2018-01-31T08:37:42.877Z,19.90
2018-01-31T08:40:10.420Z,23.77
2018-01-31T08:42:37.975Z,20.87
2018-01-31T08:45:05.544Z,18.23
2018-01-31T08:47:33.087Z,22.90
2018-01-31T08:50:00.645Z,17.90
2018-01-31T08:52:28.959Z,21.17
2018-01-31T08:54:56.501Z,21.93
2018-01-31T08:57:24.077Z,15.83
2018-01-31T08:59:51.619Z,22.10
2018-01-31T09:02:19.152Z,21.23
2018-01-31T09:04:46.710Z,20.73
2018-01-31T09:07:14.254Z,20.83
2018-01-31T09:09:42.572Z,19.20
2018-01-31T09:12:10.107Z,24.03
2018-01-31T09:14:37.675Z,14.80
2018-01-31T09:17:05.207Z,18.80
2018-01-31T09:19:32.758Z,21.47
2018-01-31T09:22:00.304Z,20.70
2018-01-31T09:24:27.854Z,21.50
2018-01-31T09:26:55.388Z,21.67
2018-01-31T09:29:22.946Z,22.23
2018-01-31T09:31:50.478Z,19.20
2018-01-31T09:34:18.040Z,20.10
2018-01-31T09:36:45.575Z,21.70
2018-01-31T09:39:13.898Z,25.70
2018-01-31T09:41:41.443Z,23.43
2018-01-31T09:44:08.978Z,24.90
2018-01-31T09:46:36.536Z,25.87
2018-01-31T09:49:04.075Z,22.30
2018-01-31T09:51:31.634Z,30.17
2018-01-31T09:53:59.171Z,28.90
2018-01-31T09:56:27.496Z,29.90
2018-01-31T09:58:55.044Z,28.03
2018-01-31T10:01:23.369Z,29.07
2018-01-31T10:03:50.906Z,32.30
2018-01-31T10:06:18.460Z,41.40
2018-01-31T10:08:45.998Z,39.90
2018-01-31T10:11:14.316Z,35.30
2018-01-31T10:13:41.856Z,36.07
2018-01-31T10:16:09.410Z,29.77
2018-01-31T10:18:36.951Z,43.20
2018-01-31T10:21:05.292Z,40.37
2018-01-31T10:23:32.831Z,46.40
2018-01-31T10:26:01.131Z,44.60
2018-01-31T10:28:29.459Z,40.73
2018-01-31T10:30:57.001Z,50.10
2018-01-31T10:33:24.566Z,41.63
2018-01-31T10:35:52.108Z,45.03
2018-01-31T10:38:19.667Z,44.00
2018-01-31T10:40:47.207Z,45.23
2018-01-31T10:43:15.538Z,42.43
2018-01-31T10:45:43.074Z,41.10
2018-01-31T10:48:10.629Z,32.03
2018-01-31T10:50:38.971Z,35.63
2018-01-31T10:53:06.535Z,38.67
2018-01-31T10:58:01.696Z,32.03
2018-01-31T11:00:34.009Z,29.60
2018-01-31T11:03:01.623Z,31.60
2018-01-31T11:05:29.137Z,33.07
2018-01-31T11:07:57.459Z,29.87
2018-01-31T11:10:25.030Z,34.63
2018-01-31T11:12:53.335Z,29.40
2018-01-31T11:15:21.660Z,31.27
2018-01-31T11:17:49.215Z,27.27
2018-01-31T11:20:17.543Z,32.00
2018-01-31T11:22:45.078Z,27.93
2018-01-31T11:25:12.647Z,33.43
2018-01-31T11:27:40.193Z,34.13
2018-01-31T11:30:08.091Z,30.20
2018-01-31T11:32:35.716Z,30.13
2018-01-31T11:35:03.279Z,27.10
2018-01-31T11:37:30.824Z,28.27
2018-01-31T11:39:58.384Z,31.13
2018-01-31T11:42:25.919Z,30.67
2018-01-31T11:44:53.457Z,27.93
2018-01-31T11:47:21.775Z,24.90
2018-01-31T11:49:50.079Z,27.53
2018-01-31T11:52:17.639Z,24.27
2018-01-31T11:54:45.952Z,28.97
2018-01-31T11:57:14.281Z,27.87
2018-01-31T11:59:41.824Z,27.70
2018-01-31T12:02:10.165Z,34.07
2018-01-31T12:04:37.702Z,26.20
2018-01-31T12:07:05.259Z,22.53
2018-01-31T12:09:39.364Z,28.30
2018-01-31T12:12:06.931Z,25.13
2018-01-31T12:14:47.207Z,23.50
2018-01-31T12:17:15.546Z,23.60
2018-01-31T12:20:06.816Z,23.10
2018-01-31T12:22:46.341Z,23.93
2018-01-31T12:25:25.733Z,25.00
2018-01-31T12:28:05.158Z,22.27
2018-01-31T12:30:48.455Z,21.03
2018-01-31T12:36:28.471Z,17.07
2018-01-31T12:38:59.378Z,16.60
2018-01-31T12:41:26.428Z,18.30
2018-01-31T12:43:53.487Z,17.63
2018-01-31T12:46:33.009Z,18.93
2018-01-31T12:49:02.013Z,18.00
2018-01-31T12:51:45.315Z,19.50
2018-01-31T12:54:24.739Z,16.03
2018-01-31T12:57:04.991Z,16.10
2018-01-31T12:59:44.347Z,15.70
2018-01-31T13:02:23.693Z,16.50
2018-01-31T13:05:02.977Z,17.73
2018-01-31T13:07:42.484Z,14.20
2018-01-31T13:10:22.644Z,17.60
2018-01-31T13:13:02.015Z,14.57
2018-01-31T13:18:46.827Z,16.57
2018-01-31T13:21:26.291Z,13.53
2018-01-31T13:24:05.786Z,11.10
2018-01-31T13:26:45.873Z,17.23
2018-01-31T13:29:24.096Z,17.50
2018-01-31T13:35:12.868Z,14.13
2018-01-31T13:37:58.102Z,12.03
2018-01-31T13:40:37.467Z,12.73
2018-01-31T13:43:17.774Z,9.33
2018-01-31T13:45:57.853Z,11.37
2018-01-31T13:48:37.889Z,12.17
2018-01-31T13:51:17.172Z,11.63
2018-01-31T13:53:56.510Z,11.93
2018-01-31T13:56:35.798Z,9.90
2018-01-31T13:59:15.157Z,9.03
2018-01-31T14:01:54.513Z,8.90
2018-01-31T14:04:33.823Z,11.70
2018-01-31T14:07:13.367Z,9.03
2018-01-31T14:09:53.405Z,9.67
2018-01-31T14:12:32.687Z,6.00
2018-01-31T14:18:18.379Z,7.03
2018-01-31T14:20:59.923Z,5.30
2018-01-31T14:23:42.064Z,5.00
2018-01-31T14:26:24.964Z,5.30
2018-01-31T14:29:04.920Z,4.90
2018-01-31T14:31:44.143Z,6.97
2018-01-31T14:37:11.930Z,4.37
2018-01-31T14:39:39.756Z,4.90
2018-01-31T14:42:06.802Z,3.53
2018-01-31T14:44:33.871Z,3.53
2018-01-31T14:47:01.683Z,3.00
2018-01-31T14:49:28.739Z,5.00
2018-01-31T14:51:56.557Z,2.73
2018-01-31T14:54:23.616Z,5.03
2018-01-31T14:56:50.671Z,3.17
2018-01-31T14:59:18.481Z,5.20
2018-01-31T15:01:45.547Z,2.40
2018-01-31T15:04:12.592Z,3.23
2018-01-31T15:06:39.647Z,2.37
2018-01-31T15:09:06.700Z,3.07
2018-01-31T15:11:33.792Z,2.53
2018-01-31T15:14:00.835Z,1.90
2018-01-31T15:16:27.895Z,2.50
2018-01-31T15:18:54.938Z,2.20
2018-01-31T15:21:22.763Z,1.80
2018-01-31T15:23:49.814Z,5.00
2018-01-31T15:26:16.877Z,4.80
2018-01-31T15:28:43.918Z,5.23
2018-01-31T15:31:10.985Z,1.87
2018-01-31T15:33:38.024Z,1.97
2018-01-31T15:36:05.071Z,1.70
2018-01-31T15:38:32.138Z,2.37
2018-01-31T15:40:59.192Z,1.70
2018-01-31T15:43:27.018Z,3.77
2018-01-31T15:45:54.105Z,1.57
2018-01-31T15:48:21.178Z,1.70
2018-01-31T15:50:48.223Z,4.00
2018-01-31T15:53:15.275Z,1.60
2018-01-31T15:55:43.075Z,1.67
2018-01-31T15:58:10.905Z,1.10
2018-01-31T16:00:37.940Z,1.73
2018-01-31T16:03:05.003Z,1.87
2018-01-31T16:05:32.046Z,1.87
2018-01-31T16:07:59.107Z,1.10
2018-01-31T16:10:26.152Z,1.27
2018-01-31T16:12:53.974Z,1.40
2018-01-31T16:15:21.039Z,4.10
2018-01-31T16:17:48.574Z,1.20
2018-01-31T16:20:28.084Z,1.27
2018-01-31T16:22:55.614Z,1.13
2018-01-31T16:25:23.947Z,1.73
2018-01-31T16:30:52.152Z,1.20
2018-01-31T16:33:23.031Z,3.47
2018-01-31T16:35:50.588Z,0.90
2018-01-31T16:38:18.137Z,0.87
2018-01-31T16:40:45.695Z,2.80
2018-01-31T16:43:13.257Z,0.73
2018-01-31T16:45:41.579Z,1.00
2018-01-31T16:48:09.103Z,1.20
2018-01-31T16:50:36.647Z,0.83
2018-01-31T16:53:04.175Z,0.83
2018-01-31T16:55:32.199Z,0.93
2018-01-31T16:58:00.916Z,1.10
2018-01-31T17:00:29.235Z,0.90
2018-01-31T17:03:01.385Z,0.87
2018-01-31T17:05:28.988Z,1.30
2018-01-31T17:07:57.308Z,1.07
2018-01-31T17:10:24.845Z,0.90
2018-01-31T17:12:52.391Z,1.20
2018-01-31T17:15:19.921Z,0.80
2018-01-31T17:17:47.480Z,1.40
2018-01-31T17:20:15.017Z,1.23
2018-01-31T17:22:42.571Z,0.80
2018-01-31T17:25:10.107Z,1.07
2018-01-31T17:27:37.662Z,1.10
2018-01-31T17:30:05.950Z,0.90
2018-01-31T17:32:34.269Z,2.70
2018-01-31T17:35:02.558Z,1.47
2018-01-31T17:37:30.857Z,1.60
2018-01-31T17:39:59.176Z,3.27
2018-01-31T17:42:26.731Z,1.63
2018-01-31T17:44:54.279Z,1.40
2018-01-31T17:47:21.816Z,1.20
2018-01-31T17:49:50.130Z,1.57
2018-01-31T17:52:17.687Z,2.73
2018-01-31T17:54:46.189Z,1.10
2018-01-31T17:57:13.723Z,1.13
2018-01-31T17:59:41.277Z,1.20
2018-01-31T18:02:09.583Z,1.27
2018-01-31T18:04:37.902Z,1.20
2018-01-31T18:07:05.452Z,1.43
2018-01-31T18:09:33.011Z,0.97
2018-01-31T18:12:00.548Z,1.60
2018-01-31T18:14:28.102Z,0.80
2018-01-31T18:16:55.630Z,1.10
2018-01-31T18:19:32.059Z,1.20
2018-01-31T18:22:00.076Z,0.60
2018-01-31T18:24:28.395Z,0.40
2018-01-31T18:26:55.947Z,0.33
2018-01-31T18:29:23.488Z,1.60
2018-01-31T18:31:51.039Z,1.43
2018-01-31T18:34:19.351Z,1.63
2018-01-31T18:36:46.913Z,1.37
2018-01-31T18:39:15.212Z,9.93
2018-01-31T18:41:42.784Z,0.30
2018-01-31T18:44:11.171Z,0.97
2018-01-31T18:46:43.703Z,0.77
2018-01-31T18:49:12.006Z,0.70
2018-01-31T18:51:40.332Z,0.40
2018-01-31T18:54:07.873Z,0.40
2018-01-31T18:56:35.434Z,0.43
2018-01-31T18:59:03.069Z,0.83
2018-01-31T19:01:31.810Z,3.13
2018-01-31T19:03:59.362Z,0.87
2018-01-31T19:06:27.674Z,0.40
2018-01-31T19:08:58.479Z,0.40
2018-01-31T19:11:27.795Z,0.50
2018-01-31T19:14:01.398Z,0.40
2018-01-31T19:16:33.059Z,3.10
2018-01-31T19:19:03.269Z,0.80
2018-01-31T19:21:31.387Z,0.50
2018-01-31T19:24:01.630Z,0.60
2018-01-31T19:26:29.336Z,0.83
2018-01-31T19:28:57.696Z,5.43
2018-01-31T19:31:25.260Z,0.73
2018-01-31T19:33:52.810Z,0.60
2018-01-31T19:36:21.106Z,0.60
2018-01-31T19:38:49.430Z,0.50
2018-01-31T19:41:21.466Z,1.07
2018-01-31T19:43:49.235Z,1.87
2018-01-31T19:46:16.779Z,0.50
2018-01-31T19:48:45.079Z,0.80
2018-01-31T19:51:13.387Z,0.70
2018-01-31T19:53:46.204Z,0.80
2018-01-31T19:56:13.755Z,0.60
2018-01-31T19:58:41.290Z,0.57
2018-01-31T20:01:13.866Z,1.17
2018-01-31T20:03:42.947Z,1.00
2018-01-31T20:06:10.525Z,0.83
2018-01-31T20:08:38.068Z,1.30
2018-01-31T20:11:05.630Z,1.23
2018-01-31T20:13:33.167Z,0.80
2018-01-31T20:16:00.727Z,0.80
2018-01-31T20:18:28.513Z,1.80
2018-01-31T20:20:56.316Z,1.07
2018-01-31T20:23:23.959Z,1.10
2018-01-31T20:25:51.785Z,0.70
2018-01-31T20:28:20.241Z,3.90
2018-01-31T20:30:54.098Z,0.97
2018-01-31T20:33:23.103Z,0.97
2018-01-31T20:35:50.757Z,1.30
2018-01-31T20:38:18.381Z,1.20
2018-01-31T20:40:45.929Z,1.13
2018-01-31T20:43:13.487Z,1.17
2018-01-31T20:45:41.024Z,1.30
2018-01-31T20:48:09.343Z,1.57
2018-01-31T20:50:37.640Z,1.40
2018-01-31T20:53:05.959Z,1.23
2018-01-31T20:55:34.245Z,1.47
2018-01-31T20:58:02.568Z,1.37
2018-01-31T21:00:30.230Z,1.83
2018-01-31T21:02:58.860Z,1.00
2018-01-31T21:05:26.388Z,1.60
2018-01-31T21:07:53.940Z,4.93
2018-01-31T21:10:21.476Z,4.00
2018-01-31T21:12:49.092Z,1.73
2018-01-31T21:15:16.997Z,2.10
2018-01-31T21:17:44.571Z,1.70
2018-01-31T21:20:12.099Z,1.40
2018-01-31T21:22:39.672Z,1.20
2018-01-31T21:25:07.972Z,2.33
2018-01-31T21:27:35.502Z,1.80
2018-01-31T21:30:03.868Z,4.00
2018-01-31T21:32:31.443Z,1.27
2018-01-31T21:34:58.999Z,1.00
2018-01-31T21:37:26.539Z,1.50
2018-01-31T21:39:54.087Z,2.77
2018-01-31T21:42:21.616Z,1.83
2018-01-31T21:44:49.299Z,2.20
2018-01-31T21:47:17.596Z,1.30
2018-01-31T21:49:45.159Z,1.20
2018-01-31T21:52:13.263Z,3.83
2018-01-31T21:54:40.816Z,1.27
2018-01-31T21:57:08.347Z,1.20
2018-01-31T21:59:35.917Z,1.40
2018-01-31T22:02:03.464Z,3.30
2018-01-31T22:04:30.991Z,1.20
2018-01-31T22:06:58.540Z,1.90
2018-01-31T22:09:26.075Z,2.10
2018-01-31T22:11:54.403Z,3.67
2018-01-31T22:14:21.936Z,1.03
2018-01-31T22:16:49.486Z,2.43
2018-01-31T22:19:17.031Z,1.63
2018-01-31T22:21:45.349Z,1.20
2018-01-31T22:24:12.884Z,4.50
2018-01-31T22:26:40.450Z,1.53
2018-01-31T22:29:07.984Z,1.40
2018-01-31T22:31:36.295Z,1.20
2018-01-31T22:34:03.827Z,2.00
2018-01-31T22:36:31.379Z,1.10
2018-01-31T22:38:58.912Z,2.20
2018-01-31T22:41:26.473Z,1.20
2018-01-31T22:43:54.023Z,1.20
2018-01-31T22:46:21.547Z,2.87
2018-01-31T22:48:49.127Z,1.43
2018-01-31T22:51:16.660Z,1.07
2018-01-31T22:53:44.974Z,0.73
2018-01-31T22:56:12.521Z,0.90
2018-01-31T22:58:40.073Z,0.60
2018-01-31T23:01:07.603Z,0.50
2018-01-31T23:03:35.931Z,0.80
2018-01-31T23:06:03.469Z,1.00
2018-01-31T23:08:31.012Z,0.40
2018-01-31T23:10:58.633Z,0.70
2018-01-31T23:13:26.179Z,0.40
2018-01-31T23:15:53.710Z,1.17
2018-01-31T23:18:21.276Z,0.40
2018-01-31T23:20:48.838Z,0.90
2018-01-31T23:23:16.420Z,5.93
2018-01-31T23:25:43.963Z,1.60
2018-01-31T23:28:12.266Z,6.60
2018-01-31T23:30:39.837Z,1.03
2018-01-31T23:33:08.139Z,0.80
2018-01-31T23:35:36.458Z,0.50
2018-01-31T23:38:04.015Z,1.47
2018-01-31T23:40:31.583Z,0.50
2018-01-31T23:42:59.122Z,0.40
2018-01-31T23:45:26.672Z,0.50
2018-01-31T23:47:54.198Z,0.70
2018-01-31T23:50:21.752Z,0.60
2018-01-31T23:52:50.063Z,0.50
2018-01-31T23:55:17.613Z,0.83
2018-01-31T23:57:45.147Z,0.40
